createdAt,value
2018-12-26T00:00:15.170Z,3.80
2018-12-26T00:02:43.965Z,3.80
2018-12-26T00:05:12.338Z,3.90
2018-12-26T00:07:40.675Z,3.90
2018-12-26T00:10:09.405Z,3.90
2018-12-26T00:12:37.858Z,4.00
2018-12-26T00:15:06.248Z,4.00
2018-12-26T00:17:35.154Z,4.10
2018-12-26T00:20:03.911Z,4.20
2018-12-26T00:22:32.822Z,4.20
2018-12-26T00:25:02.129Z,4.20
2018-12-26T00:27:30.606Z,4.30
2018-12-26T00:29:58.907Z,4.30
2018-12-26T00:32:27.736Z,4.30
2018-12-26T00:34:56.024Z,4.30
2018-12-26T00:37:24.385Z,4.30
2018-12-26T00:39:53.021Z,4.20
2018-12-26T00:42:21.339Z,4.20
2018-12-26T00:44:49.786Z,4.20
2018-12-26T00:47:18.448Z,4.20
2018-12-26T00:49:46.840Z,4.10
2018-12-26T00:52:15.241Z,4.20
2018-12-26T00:54:43.889Z,4.20
2018-12-26T00:57:12.823Z,4.20
2018-12-26T00:59:41.243Z,4.20
2018-12-26T01:02:09.835Z,4.20
2018-12-26T01:04:38.118Z,4.30
2018-12-26T01:07:06.865Z,4.20
2018-12-26T01:09:35.690Z,4.20
2018-12-26T01:12:04.068Z,4.20
2018-12-26T01:14:32.359Z,4.20
2018-12-26T01:17:01.131Z,4.10
2018-12-26T01:19:29.655Z,4.00
2018-12-26T01:21:58.127Z,4.00
2018-12-26T01:24:27.184Z,3.90
2018-12-26T01:26:55.582Z,3.90
2018-12-26T01:29:23.924Z,3.90
2018-12-26T01:31:52.623Z,3.90
2018-12-26T01:34:20.960Z,3.90
2018-12-26T01:36:49.378Z,3.90
2018-12-26T01:39:18.370Z,3.90
2018-12-26T01:41:46.743Z,3.90
2018-12-26T01:44:15.060Z,3.90
2018-12-26T01:46:43.712Z,3.90
2018-12-26T01:49:12.077Z,3.90
2018-12-26T01:51:40.683Z,3.80
2018-12-26T01:54:09.099Z,3.90
2018-12-26T01:56:37.744Z,3.90
2018-12-26T01:59:07.075Z,3.80
2018-12-26T02:01:34.852Z,3.80
2018-12-26T02:04:03.266Z,3.80
2018-12-26T02:06:32.033Z,3.90
2018-12-26T02:09:00.747Z,4.00
2018-12-26T02:11:29.325Z,3.90
2018-12-26T02:13:57.780Z,3.90
2018-12-26T02:16:26.355Z,4.10
2018-12-26T02:18:54.873Z,4.20
2018-12-26T02:21:23.202Z,4.40
2018-12-26T02:23:52.202Z,4.50
2018-12-26T02:26:21.147Z,4.50
2018-12-26T02:28:49.641Z,4.50
2018-12-26T02:31:18.296Z,4.60
2018-12-26T02:33:47.117Z,4.60
2018-12-26T02:36:15.433Z,4.60
2018-12-26T02:38:44.199Z,4.50
2018-12-26T02:41:12.756Z,4.50
2018-12-26T02:43:41.119Z,4.60
2018-12-26T02:46:10.096Z,4.50
2018-12-26T02:48:38.459Z,4.60
2018-12-26T02:51:06.824Z,4.80
2018-12-26T02:53:35.447Z,4.70
2018-12-26T02:56:03.871Z,4.60
2018-12-26T02:58:32.176Z,4.60
2018-12-26T03:01:01.286Z,4.60
2018-12-26T03:03:29.658Z,4.50
2018-12-26T03:05:57.943Z,4.60
2018-12-26T03:08:26.593Z,4.60
2018-12-26T03:10:54.911Z,4.50
2018-12-26T03:13:24.093Z,4.50
2018-12-26T03:15:53.095Z,4.50
2018-12-26T03:18:21.407Z,4.40
2018-12-26T03:20:49.841Z,4.50
2018-12-26T03:23:18.676Z,4.50
2018-12-26T03:25:46.982Z,4.50
2018-12-26T03:28:15.602Z,4.60
2018-12-26T03:30:44.153Z,4.50
2018-12-26T03:33:12.616Z,4.60
2018-12-26T03:35:41.035Z,4.60
2018-12-26T03:38:10.034Z,4.50
2018-12-26T03:40:38.338Z,4.60
2018-12-26T03:43:06.656Z,4.50
2018-12-26T03:45:35.301Z,4.50
2018-12-26T03:48:03.724Z,4.40
2018-12-26T03:50:32.229Z,4.40
2018-12-26T03:53:01.093Z,4.40
2018-12-26T03:55:29.530Z,4.30
2018-12-26T03:57:58.118Z,4.20
2018-12-26T04:00:26.821Z,4.10
2018-12-26T04:02:55.331Z,4.10
2018-12-26T04:05:23.980Z,4.10
2018-12-26T04:07:52.699Z,4.10
2018-12-26T04:10:21.213Z,4.10
2018-12-26T04:12:49.622Z,4.10
2018-12-26T04:15:18.601Z,4.10
2018-12-26T04:17:47.131Z,4.20
2018-12-26T04:20:15.463Z,4.30
2018-12-26T04:22:44.194Z,4.30
2018-12-26T04:25:12.799Z,4.30
2018-12-26T04:27:41.254Z,4.30
2018-12-26T04:30:10.223Z,4.20
2018-12-26T04:32:38.598Z,4.10
2018-12-26T04:35:06.948Z,4.10
2018-12-26T04:37:35.576Z,4.20
2018-12-26T04:40:04.849Z,4.10
2018-12-26T04:42:33.333Z,4.10
2018-12-26T04:45:02.359Z,4.30
2018-12-26T04:47:30.709Z,4.30
2018-12-26T04:49:59.051Z,4.30
2018-12-26T04:52:27.766Z,4.30
2018-12-26T04:54:56.456Z,4.30
2018-12-26T04:57:25.227Z,4.20
2018-12-26T04:59:53.709Z,4.20
2018-12-26T05:02:22.046Z,4.10
2018-12-26T05:04:50.362Z,4.10
2018-12-26T05:07:19.289Z,4.10
2018-12-26T05:09:47.888Z,4.10
2018-12-26T05:12:16.647Z,4.00
2018-12-26T05:14:46.265Z,4.00
2018-12-26T05:17:14.816Z,4.00
2018-12-26T05:19:43.587Z,4.10
2018-12-26T05:22:12.322Z,4.10
2018-12-26T05:24:40.728Z,4.10
2018-12-26T05:27:09.075Z,4.00
2018-12-26T05:29:37.620Z,4.00
2018-12-26T05:32:06.140Z,4.00
2018-12-26T05:34:34.473Z,4.00
2018-12-26T05:37:03.348Z,3.90
2018-12-26T05:39:31.675Z,3.80
2018-12-26T05:42:00.168Z,3.80
2018-12-26T05:44:28.816Z,3.80
2018-12-26T05:46:57.388Z,3.80
2018-12-26T05:49:25.706Z,3.80
2018-12-26T05:51:54.385Z,3.80
2018-12-26T05:54:22.700Z,3.70
2018-12-26T05:56:51.042Z,3.70
2018-12-26T05:59:19.825Z,3.70
2018-12-26T06:01:48.141Z,3.60
2018-12-26T06:04:16.464Z,3.50
2018-12-26T06:06:45.246Z,3.50
2018-12-26T06:09:13.911Z,3.50
2018-12-26T06:11:42.264Z,3.50
2018-12-26T06:14:10.882Z,3.50
2018-12-26T06:16:39.161Z,3.50
2018-12-26T06:19:08.040Z,3.40
2018-12-26T06:21:36.634Z,3.50
2018-12-26T06:24:05.184Z,3.40
2018-12-26T06:26:33.533Z,3.50
2018-12-26T06:29:02.507Z,3.60
2018-12-26T06:31:30.835Z,3.60
2018-12-26T06:33:59.446Z,3.70
2018-12-26T06:36:28.253Z,3.70
2018-12-26T06:38:56.591Z,3.70
2018-12-26T06:41:25.041Z,3.70
2018-12-26T06:43:53.538Z,3.70
2018-12-26T06:46:22.052Z,3.70
2018-12-26T06:48:50.621Z,3.70
2018-12-26T06:51:19.603Z,3.60
2018-12-26T06:53:48.078Z,3.60
2018-12-26T06:56:16.418Z,3.60
2018-12-26T06:58:45.196Z,3.60
2018-12-26T07:01:13.873Z,3.50
2018-12-26T07:03:42.381Z,3.50
2018-12-26T07:06:11.247Z,3.60
2018-12-26T07:08:39.795Z,3.50
2018-12-26T07:11:08.106Z,3.50
2018-12-26T07:13:36.686Z,3.50
2018-12-26T07:16:05.019Z,3.50
2018-12-26T07:18:33.369Z,3.50
2018-12-26T07:21:02.126Z,3.50
2018-12-26T07:23:30.932Z,3.50
2018-12-26T07:25:59.257Z,3.40
2018-12-26T07:28:28.180Z,3.40
2018-12-26T07:30:56.526Z,3.30
2018-12-26T07:33:25.039Z,3.30
2018-12-26T07:35:53.923Z,3.20
2018-12-26T07:38:22.350Z,3.20
2018-12-26T07:40:50.676Z,3.10
2018-12-26T07:43:19.366Z,3.20
2018-12-26T07:45:47.654Z,3.10
2018-12-26T07:48:15.958Z,3.20
2018-12-26T07:50:44.805Z,3.20
2018-12-26T07:53:13.265Z,3.10
2018-12-26T07:55:41.603Z,3.10
2018-12-26T07:58:17.563Z,3.10
2018-12-26T08:00:38.893Z,3.10
2018-12-26T08:03:07.416Z,3.10
2018-12-26T08:05:36.297Z,3.10
2018-12-26T08:08:04.614Z,3.10
2018-12-26T08:10:32.961Z,3.20
2018-12-26T08:13:01.611Z,3.10
2018-12-26T08:15:29.941Z,3.10
2018-12-26T08:17:58.246Z,3.20
2018-12-26T08:20:27.179Z,3.20
2018-12-26T08:22:55.539Z,3.30
2018-12-26T08:25:23.881Z,3.30
2018-12-26T08:27:52.779Z,3.20
2018-12-26T08:30:21.390Z,3.20
2018-12-26T08:32:49.710Z,3.20
2018-12-26T08:35:18.673Z,3.20
2018-12-26T08:37:47.018Z,3.10
2018-12-26T08:40:15.542Z,3.10
2018-12-26T08:42:44.270Z,3.10
2018-12-26T08:45:12.639Z,3.10
2018-12-26T08:47:40.996Z,3.10
2018-12-26T08:50:09.730Z,3.20
2018-12-26T08:52:38.173Z,3.20
2018-12-26T08:55:06.795Z,3.20
2018-12-26T08:57:35.483Z,3.20
2018-12-26T09:00:04.569Z,3.20
2018-12-26T09:02:32.869Z,3.20
2018-12-26T09:05:01.662Z,3.30
2018-12-26T09:07:29.994Z,3.30
2018-12-26T09:09:58.312Z,3.30
2018-12-26T09:12:27.277Z,3.20
2018-12-26T09:14:55.639Z,3.20
2018-12-26T09:17:23.960Z,3.30
2018-12-26T09:19:53.156Z,3.30
2018-12-26T09:22:22.008Z,3.30
2018-12-26T09:24:50.339Z,3.30
2018-12-26T09:27:19.212Z,3.30
2018-12-26T09:29:47.795Z,3.40
2018-12-26T09:32:16.209Z,3.50
2018-12-26T09:34:44.959Z,3.50
2018-12-26T09:37:13.345Z,3.50
2018-12-26T09:39:41.896Z,3.60
2018-12-26T09:42:10.548Z,3.70
2018-12-26T09:44:39.059Z,3.80
2018-12-26T09:47:07.457Z,3.90
2018-12-26T09:49:35.993Z,4.10
2018-12-26T09:52:04.358Z,4.20
2018-12-26T09:54:32.846Z,4.20
2018-12-26T09:57:01.892Z,4.20
2018-12-26T09:59:30.399Z,4.20
2018-12-26T10:01:58.699Z,4.20
2018-12-26T10:04:27.522Z,4.30
2018-12-26T10:06:56.010Z,4.30
2018-12-26T10:09:24.455Z,4.20
2018-12-26T10:11:53.222Z,4.20
2018-12-26T10:14:21.636Z,4.30
2018-12-26T10:16:50.080Z,4.30
2018-12-26T10:19:18.782Z,4.30
2018-12-26T10:21:53.864Z,4.30
2018-12-26T10:24:22.488Z,4.30
2018-12-26T10:26:51.332Z,4.30
2018-12-26T10:29:20.017Z,4.30
2018-12-26T10:31:48.559Z,4.40
2018-12-26T10:34:17.014Z,4.40
2018-12-26T10:36:45.363Z,4.40
2018-12-26T10:39:14.414Z,4.40
2018-12-26T10:41:42.774Z,4.40
2018-12-26T10:44:11.160Z,4.40
2018-12-26T10:46:39.860Z,4.40
2018-12-26T10:49:08.269Z,4.30
2018-12-26T10:51:36.716Z,4.30
2018-12-26T10:54:05.653Z,4.40
2018-12-26T10:56:33.968Z,4.50
2018-12-26T10:59:09.962Z,4.50
2018-12-26T11:01:31.231Z,4.60
2018-12-26T11:03:59.572Z,4.70
2018-12-26T11:06:28.405Z,4.70
2018-12-26T11:08:57.127Z,4.80
2018-12-26T11:11:25.392Z,4.90
2018-12-26T11:13:53.728Z,4.90
2018-12-26T11:16:22.568Z,4.90
2018-12-26T11:18:51.620Z,4.90
2018-12-26T11:21:19.941Z,4.90
2018-12-26T11:23:48.492Z,4.90
2018-12-26T11:26:16.792Z,4.90
2018-12-26T11:28:45.133Z,4.90
2018-12-26T11:31:14.074Z,4.80
2018-12-26T11:33:43.062Z,4.80
2018-12-26T11:36:11.635Z,4.70
2018-12-26T11:38:40.398Z,4.70
2018-12-26T11:41:08.799Z,4.60
2018-12-26T11:43:37.553Z,4.60
2018-12-26T11:46:06.477Z,4.50
2018-12-26T11:48:34.807Z,4.50
2018-12-26T11:51:03.231Z,4.40
2018-12-26T11:53:32.229Z,4.40
2018-12-26T11:56:00.735Z,4.40
2018-12-26T11:58:29.281Z,4.30
2018-12-26T12:00:57.971Z,4.30
2018-12-26T12:03:26.573Z,4.30
2018-12-26T12:06:01.941Z,4.20
2018-12-26T12:08:30.459Z,4.30
2018-12-26T12:10:58.862Z,4.30
2018-12-26T12:13:27.849Z,4.20
2018-12-26T12:15:56.149Z,4.20
2018-12-26T12:18:24.486Z,4.20
2018-12-26T12:20:53.286Z,4.10
2018-12-26T12:23:21.594Z,4.10
2018-12-26T12:25:49.925Z,4.10
2018-12-26T12:28:18.876Z,4.10
2018-12-26T12:30:47.378Z,4.10
2018-12-26T12:33:15.710Z,4.10
2018-12-26T12:35:44.391Z,4.10
2018-12-26T12:38:12.740Z,4.10
2018-12-26T12:40:41.229Z,4.10
2018-12-26T12:43:09.915Z,4.00
2018-12-26T12:45:38.365Z,4.00
2018-12-26T12:48:06.890Z,4.00
2018-12-26T12:50:35.504Z,4.00
2018-12-26T12:53:03.984Z,4.00
2018-12-26T12:55:32.420Z,4.00
2018-12-26T12:58:01.412Z,4.00
2018-12-26T13:00:29.783Z,4.00
2018-12-26T13:03:00.518Z,3.90
2018-12-26T13:05:27.002Z,3.90
2018-12-26T13:07:55.298Z,3.90
2018-12-26T13:10:23.631Z,3.90
2018-12-26T13:12:52.601Z,3.90
2018-12-26T13:15:20.947Z,3.90
2018-12-26T13:17:49.245Z,3.90
2018-12-26T13:20:18.034Z,3.80
2018-12-26T13:22:46.717Z,3.80
2018-12-26T13:25:15.404Z,3.70
2018-12-26T13:27:44.395Z,3.70
2018-12-26T13:30:12.927Z,3.70
2018-12-26T13:32:41.253Z,3.60
2018-12-26T13:35:10.003Z,3.50
2018-12-26T13:37:40.976Z,3.50
2018-12-26T13:40:09.664Z,3.50
2018-12-26T13:42:38.203Z,3.40
2018-12-26T13:45:07.001Z,3.40
2018-12-26T13:47:35.626Z,3.30
2018-12-26T13:50:04.708Z,3.30
2018-12-26T13:52:33.331Z,3.20
2018-12-26T13:55:01.666Z,3.10
2018-12-26T13:57:30.458Z,3.00
2018-12-26T14:00:02.374Z,3.00
2018-12-26T14:02:27.156Z,2.90
2018-12-26T14:04:55.894Z,2.80
2018-12-26T14:07:24.222Z,2.70
2018-12-26T14:09:52.959Z,2.60
2018-12-26T14:12:21.949Z,2.50
2018-12-26T14:14:50.909Z,2.40
2018-12-26T14:17:19.626Z,2.40
2018-12-26T14:19:48.879Z,2.30
2018-12-26T14:22:17.235Z,2.30
2018-12-26T14:24:45.678Z,2.20
2018-12-26T14:27:14.675Z,2.20
2018-12-26T14:29:43.071Z,2.20
2018-12-26T14:32:11.991Z,2.10
2018-12-26T14:34:40.725Z,2.10
2018-12-26T14:37:09.084Z,2.10
2018-12-26T14:39:38.154Z,2.10
2018-12-26T14:42:06.780Z,2.10
2018-12-26T14:44:35.078Z,2.10
2018-12-26T14:47:03.456Z,2.10
2018-12-26T14:49:32.528Z,2.10
2018-12-26T14:52:01.071Z,2.00
2018-12-26T14:54:29.426Z,2.00
2018-12-26T14:56:58.278Z,1.90
2018-12-26T14:59:26.595Z,1.90
2018-12-26T15:01:54.987Z,1.90
2018-12-26T15:04:23.576Z,1.90
2018-12-26T15:06:52.039Z,1.90
2018-12-26T15:09:20.431Z,1.90
2018-12-26T15:11:49.314Z,1.90
2018-12-26T15:14:17.676Z,1.90
2018-12-26T15:16:46.368Z,1.90
2018-12-26T15:19:18.122Z,2.00
2018-12-26T15:21:46.410Z,2.00
2018-12-26T15:24:14.731Z,2.00
2018-12-26T15:26:43.416Z,1.90
2018-12-26T15:29:11.959Z,1.90
2018-12-26T15:31:40.285Z,1.90
2018-12-26T15:34:09.467Z,1.90
2018-12-26T15:36:38.153Z,1.90
2018-12-26T15:39:09.898Z,1.80
2018-12-26T15:41:38.595Z,1.80
2018-12-26T15:44:06.900Z,1.70
2018-12-26T15:46:35.358Z,1.70
2018-12-26T15:49:04.343Z,1.60
2018-12-26T15:51:32.978Z,1.50
2018-12-26T15:54:01.403Z,1.50
2018-12-26T15:56:29.928Z,1.40
2018-12-26T15:58:58.571Z,1.30
2018-12-26T16:01:26.976Z,1.30
2018-12-26T16:03:55.835Z,1.30
2018-12-26T16:06:24.171Z,1.30
2018-12-26T16:08:52.590Z,1.30
2018-12-26T16:11:21.279Z,1.30
2018-12-26T16:13:49.630Z,1.40
2018-12-26T16:16:18.078Z,1.40
2018-12-26T16:18:47.022Z,1.60
2018-12-26T16:21:15.365Z,1.80
2018-12-26T16:23:44.039Z,1.90
2018-12-26T16:26:12.645Z,2.00
2018-12-26T16:28:41.042Z,2.00
2018-12-26T16:31:09.387Z,2.00
2018-12-26T16:33:38.079Z,2.10
2018-12-26T16:36:06.918Z,2.10
2018-12-26T16:38:35.238Z,2.20
2018-12-26T16:41:04.263Z,2.30
2018-12-26T16:43:32.642Z,2.30
2018-12-26T16:46:00.980Z,2.40
2018-12-26T16:48:29.854Z,2.40
2018-12-26T16:50:58.188Z,2.50
2018-12-26T16:53:26.507Z,2.50
2018-12-26T16:55:55.144Z,2.60
2018-12-26T16:58:23.450Z,2.70
2018-12-26T17:00:55.149Z,2.80
2018-12-26T17:03:20.435Z,2.80
2018-12-26T17:05:48.768Z,2.90
2018-12-26T17:08:17.253Z,2.80
2018-12-26T17:10:46.331Z,2.90
2018-12-26T17:13:14.670Z,3.00
2018-12-26T17:15:43.009Z,3.10
2018-12-26T17:18:11.730Z,3.10
2018-12-26T17:20:40.150Z,3.10
2018-12-26T17:23:08.676Z,3.10
2018-12-26T17:25:37.520Z,3.20
2018-12-26T17:28:05.884Z,3.20
2018-12-26T17:30:34.277Z,3.20
2018-12-26T17:33:03.265Z,3.20
2018-12-26T17:35:31.580Z,3.20
2018-12-26T17:38:00.355Z,3.10
2018-12-26T17:40:29.193Z,3.20
2018-12-26T17:42:57.632Z,3.20
2018-12-26T17:45:26.358Z,3.30
2018-12-26T17:47:56.054Z,3.30
2018-12-26T17:50:40.610Z,3.30
2018-12-26T17:53:11.934Z,3.20
2018-12-26T17:56:07.815Z,3.20
2018-12-26T17:58:42.680Z,3.20
2018-12-26T18:01:19.565Z,3.20
2018-12-26T18:03:48.276Z,3.20
2018-12-26T18:06:16.571Z,3.10
2018-12-26T18:08:45.026Z,3.20
2018-12-26T18:11:13.920Z,3.20
2018-12-26T18:13:42.281Z,3.30
2018-12-26T18:16:10.913Z,3.30
2018-12-26T18:18:39.658Z,3.20
2018-12-26T18:21:08.143Z,3.30
2018-12-26T18:23:36.514Z,3.20
2018-12-26T18:26:05.243Z,3.20
2018-12-26T18:28:33.740Z,3.10
2018-12-26T18:31:02.183Z,3.10
2018-12-26T18:33:31.297Z,3.10
2018-12-26T18:35:59.982Z,3.00
2018-12-26T18:38:28.803Z,3.00
2018-12-26T18:40:57.658Z,3.00
2018-12-26T18:43:26.059Z,3.10
2018-12-26T18:45:54.543Z,3.10
2018-12-26T18:48:22.928Z,3.00
2018-12-26T18:50:51.221Z,2.90
2018-12-26T18:53:19.856Z,2.80
2018-12-26T18:55:48.380Z,2.80
2018-12-26T18:58:16.917Z,2.80
2018-12-26T19:00:45.499Z,2.80
2018-12-26T19:03:14.285Z,2.80
2018-12-26T19:05:42.665Z,2.90
2018-12-26T19:08:11.040Z,2.90
2018-12-26T19:10:39.730Z,2.90
2018-12-26T19:13:08.322Z,2.80
2018-12-26T19:15:37.087Z,2.90
2018-12-26T19:18:05.509Z,2.80
2018-12-26T19:20:33.807Z,2.80
2018-12-26T19:23:02.226Z,2.80
2018-12-26T19:25:31.182Z,2.80
2018-12-26T19:27:59.510Z,2.90
2018-12-26T19:30:27.797Z,3.00
2018-12-26T19:32:56.657Z,3.10
2018-12-26T19:35:25.274Z,3.20
2018-12-26T19:37:53.577Z,3.20
2018-12-26T19:40:22.705Z,3.20
2018-12-26T19:42:51.359Z,3.20
2018-12-26T19:45:19.662Z,3.20
2018-12-26T19:47:48.621Z,3.20
2018-12-26T19:50:17.287Z,3.10
2018-12-26T19:52:45.643Z,3.10
2018-12-26T19:55:14.667Z,3.00
2018-12-26T19:57:42.953Z,3.00
2018-12-26T20:00:11.803Z,3.10
2018-12-26T20:02:40.412Z,3.10
2018-12-26T20:05:08.886Z,3.10
2018-12-26T20:07:37.220Z,3.10
2018-12-26T20:10:07.207Z,3.10
2018-12-26T20:12:35.551Z,3.10
2018-12-26T20:15:03.896Z,3.10
2018-12-26T20:17:32.535Z,3.20
2018-12-26T20:20:00.826Z,3.20
2018-12-26T20:22:29.160Z,3.10
2018-12-26T20:24:57.809Z,3.10
2018-12-26T20:27:26.108Z,3.10
2018-12-26T20:29:55.441Z,3.10
2018-12-26T20:32:24.016Z,3.00
2018-12-26T20:34:52.554Z,3.00
2018-12-26T20:37:21.196Z,3.00
2018-12-26T20:39:49.922Z,3.00
2018-12-26T20:42:18.695Z,2.90
2018-12-26T20:44:47.062Z,3.00
2018-12-26T20:47:15.836Z,3.10
2018-12-26T20:49:44.429Z,3.10
2018-12-26T20:52:12.809Z,3.00
2018-12-26T20:54:41.255Z,3.10
2018-12-26T20:57:09.722Z,3.20
2018-12-26T20:59:38.540Z,3.10
2018-12-26T21:02:06.988Z,3.20
2018-12-26T21:04:35.333Z,3.10
2018-12-26T21:07:03.695Z,3.20
2018-12-26T21:09:32.445Z,3.20
2018-12-26T21:12:00.946Z,3.30
2018-12-26T21:14:29.266Z,3.30
2018-12-26T21:16:58.041Z,3.40
2018-12-26T21:19:26.727Z,3.30
2018-12-26T21:21:55.246Z,3.40
2018-12-26T21:24:24.102Z,3.40
2018-12-26T21:26:52.922Z,3.40
2018-12-26T21:29:21.684Z,3.30
2018-12-26T21:31:50.148Z,3.30
2018-12-26T21:34:18.784Z,3.30
2018-12-26T21:36:47.210Z,3.20
2018-12-26T21:39:15.746Z,3.20
2018-12-26T21:41:44.138Z,3.30
2018-12-26T21:44:12.985Z,3.30
2018-12-26T21:46:41.508Z,3.40
2018-12-26T21:49:09.780Z,3.40
2018-12-26T21:51:38.188Z,3.40
2018-12-26T21:54:07.100Z,3.30
2018-12-26T21:56:35.463Z,3.30
2018-12-26T21:59:04.067Z,3.20
2018-12-26T22:01:32.830Z,3.20
2018-12-26T22:04:01.123Z,3.20
2018-12-26T22:06:29.587Z,3.00
2018-12-26T22:08:58.435Z,3.00
2018-12-26T22:11:26.749Z,3.00
2018-12-26T22:13:55.330Z,3.00
2018-12-26T22:16:23.873Z,3.00
2018-12-26T22:18:52.395Z,3.00
2018-12-26T22:21:20.980Z,3.10
2018-12-26T22:23:50.071Z,3.10
2018-12-26T22:26:18.504Z,3.10
2018-12-26T22:28:46.793Z,3.00
2018-12-26T22:31:15.463Z,3.00
2018-12-26T22:33:43.882Z,2.90
2018-12-26T22:36:12.573Z,2.80
2018-12-26T22:38:41.571Z,2.80
2018-12-26T22:41:10.051Z,2.70
2018-12-26T22:43:38.570Z,2.70
2018-12-26T22:46:07.780Z,2.60
2018-12-26T22:48:36.411Z,2.60
2018-12-26T22:51:04.777Z,2.60
2018-12-26T22:53:33.541Z,2.60
2018-12-26T22:56:02.056Z,2.60
2018-12-26T22:58:30.382Z,2.60
2018-12-26T23:00:59.366Z,2.60
2018-12-26T23:03:27.805Z,2.60
2018-12-26T23:05:56.195Z,2.60
2018-12-26T23:08:25.171Z,2.50
2018-12-26T23:10:53.852Z,2.50
2018-12-26T23:13:22.247Z,2.40
2018-12-26T23:15:51.073Z,2.40
2018-12-26T23:18:19.419Z,2.50
2018-12-26T23:20:47.723Z,2.50
2018-12-26T23:23:16.200Z,2.30
2018-12-26T23:25:44.683Z,2.30
2018-12-26T23:28:13.063Z,2.20
2018-12-26T23:30:42.669Z,2.20
2018-12-26T23:33:11.282Z,2.10
2018-12-26T23:35:39.652Z,2.00
2018-12-26T23:38:08.640Z,2.00
2018-12-26T23:40:37.003Z,2.00
2018-12-26T23:43:05.419Z,1.90
2018-12-26T23:45:34.217Z,1.90
2018-12-26T23:48:02.928Z,1.90
2018-12-26T23:50:31.391Z,1.90
2018-12-26T23:53:00.119Z,1.80
2018-12-26T23:55:28.405Z,1.90
2018-12-26T23:57:56.696Z,1.90
